Plantsville, Connecticut
Current Conditions -  °F | °C
As of 9:53 PM on Wednesday 22 Oct 2014 (Local Time) from KMMK Reporting Station
Moderate Rain Moderate Rain  
Wind Chill: 43°   Ceiling: 1600
Heat Index: 49°   Visibility: 4mi
Dew Point: 45°   Wind: 17mph
Humidity: 86%   Direction: 10°N
Pressure: 29.76"   Gusts: 38mph
Location:  41.58°N, 72.89°W
Report Text: KMMK 230153Z AUTO 01015G33KT 4SM RA BR BKN016 OVC025 09/07 A2976 RMK AO2 PK WND 01033/0144 SLP077 P0014 T00940072 TSNO
Loading
Personal Weather Stations






























Interactive Weather Map
Tropical Storm Tracking
New forecast layout! Learn more

10-Day Weather Forecast

Advertisements
Track Severe Weather on mobile